Time;durP1;ratioP1;P1;durP2;ratioP2;P2;SDS_P1;SDS_P2;PMS_P1;PMS_P2;Temp;Humidity;BMP_temperature;BMP_pressure;BME280_temperature;BME280_humidity;BME280_pressure;Samples;Min_cycle;Max_cycle;Signal;HPM_P1;HPM_P2
2022/08/21 00:01:13;;;;;;;0.45;0.45;;;17.30;99.90;;;;;;5053540;28;20031;-72
2022/08/21 00:03:39;;;;;;;0.00;0.00;;;17.30;99.90;;;;;;5052281;28;20021;-73
2022/08/21 00:06:05;;;;;;;0.00;0.00;;;17.30;99.90;;;;;;5052192;28;20048;-73
2022/08/21 00:08:31;;;;;;;0.00;0.00;;;17.20;99.90;;;;;;5053263;28;20071;-73
2022/08/21 00:10:57;;;;;;;0.00;0.00;;;17.20;99.90;;;;;;5051949;28;20067;-73
2022/08/21 00:13:23;;;;;;;0.00;0.00;;;17.30;99.90;;;;;;5053277;28;20079;-73
2022/08/21 00:15:49;;;;;;;0.00;0.00;;;17.20;99.90;;;;;;5053012;28;20419;-73
2022/08/21 00:18:17;;;;;;;0.00;0.00;;;17.10;99.90;;;;;;5051878;28;20078;-73
2022/08/21 00:20:44;;;;;;;0.00;0.00;;;17.10;99.90;;;;;;5052027;28;20488;-73
2022/08/21 00:23:11;;;;;;;0.00;0.00;;;17.00;99.90;;;;;;5051891;28;20396;-72
2022/08/21 00:25:37;;;;;;;0.00;0.00;;;16.90;99.90;;;;;;5051608;28;20029;-74
2022/08/21 00:28:04;;;;;;;0.00;0.00;;;16.80;99.90;;;;;;5051611;28;20063;-74
2022/08/21 00:30:31;;;;;;;0.00;0.00;;;16.80;99.90;;;;;;5052816;28;20104;-75
2022/08/21 00:32:57;;;;;;;0.00;0.00;;;16.80;99.90;;;;;;5052822;28;20518;-75
2022/08/21 00:35:27;;;;;;;0.20;0.20;;;16.80;99.90;;;;;;5052706;28;20021;-75
2022/08/21 00:37:53;;;;;;;0.00;0.00;;;16.70;99.90;;;;;;5052851;28;20036;-75
2022/08/21 00:40:28;;;;;;;0.10;0.10;;;16.70;99.90;;;;;;5051615;28;20017;-75
2022/08/21 00:42:54;;;;;;;0.00;0.00;;;16.70;99.90;;;;;;5051472;28;20037;-75
2022/08/21 00:45:22;;;;;;;0.00;0.00;;;16.60;99.90;;;;;;5052646;28;20032;-75
2022/08/21 00:47:49;;;;;;;0.10;0.10;;;16.60;99.90;;;;;;5051284;28;20408;-75
2022/08/21 00:50:15;;;;;;;0.10;0.10;;;16.60;99.90;;;;;;5051402;28;20502;-75
2022/08/21 00:52:42;;;;;;;0.10;0.10;;;16.60;99.90;;;;;;5034642;28;20025;-75
2022/08/21 00:55:10;;;;;;;0.20;0.20;;;16.70;99.90;;;;;;5051208;28;20462;-75
2022/08/21 00:57:42;;;;;;;0.10;0.10;;;16.60;99.90;;;;;;5052263;28;20025;-75
2022/08/21 01:00:12;;;;;;;0.30;0.30;;;16.50;99.90;;;;;;5034564;28;20091;-74
2022/08/21 01:02:39;;;;;;;0.00;0.00;;;16.50;99.90;;;;;;5051194;28;20396;-75
2022/08/21 01:05:05;;;;;;;0.30;0.10;;;16.50;99.90;;;;;;5050819;28;20028;-75
2022/08/21 01:07:31;;;;;;;0.00;0.00;;;16.40;99.90;;;;;;5051956;28;20032;-75
2022/08/21 01:09:57;;;;;;;3.30;0.45;;;16.40;99.90;;;;;;5052235;28;20025;-75
2022/08/21 01:12:23;;;;;;;0.10;0.10;;;16.40;99.90;;;;;;5034327;28;20037;-75
2022/08/21 01:14:49;;;;;;;0.00;0.00;;;16.30;99.90;;;;;;5050892;28;20096;-75
2022/08/21 01:17:16;;;;;;;0.00;0.00;;;16.40;99.90;;;;;;5051904;28;20077;-75
2022/08/21 01:19:43;;;;;;;0.00;0.00;;;16.40;99.90;;;;;;5034201;28;20021;-75
2022/08/21 01:22:09;;;;;;;0.00;0.00;;;16.50;99.90;;;;;;5051043;28;20473;-75
2022/08/21 01:24:35;;;;;;;0.00;0.00;;;16.60;99.90;;;;;;5034153;28;20031;-75
2022/08/21 01:27:02;;;;;;;0.00;0.00;;;16.70;99.90;;;;;;5050563;28;20040;-75
2022/08/21 01:29:54;;;;;;;0.10;0.10;;;16.60;99.90;;;;;;5051939;28;20025;-75
2022/08/21 01:32:20;;;;;;;0.00;0.00;;;16.50;99.90;;;;;;5051902;28;20017;-75
2022/08/21 01:34:49;;;;;;;0.10;0.10;;;16.40;99.90;;;;;;5051784;28;20029;-75
2022/08/21 01:37:15;;;;;;;0.00;0.00;;;16.40;99.90;;;;;;5051860;28;20041;-74
2022/08/21 01:39:42;;;;;;;0.03;0.03;;;16.30;99.90;;;;;;5050456;28;20022;-75
2022/08/21 01:42:08;;;;;;;0.20;0.15;;;16.30;99.90;;;;;;5051778;28;20040;-75
2022/08/21 01:44:34;;;;;;;0.10;0.10;;;16.30;99.90;;;;;;5051814;28;20050;-75
2022/08/21 01:47:03;;;;;;;0.57;0.40;;;16.20;99.90;;;;;;5051573;28;20374;-75
2022/08/21 01:49:29;;;;;;;0.00;0.00;;;16.30;99.90;;;;;;5051865;28;20377;-75
2022/08/21 01:51:55;;;;;;;0.00;0.00;;;16.40;99.90;;;;;;5051955;28;20300;-75
2022/08/21 01:54:21;;;;;;;0.00;0.00;;;16.60;99.90;;;;;;5051773;28;20028;-75
2022/08/21 01:56:49;;;;;;;0.20;0.20;;;16.50;99.90;;;;;;5051543;28;20519;-75
2022/08/21 01:59:16;;;;;;;0.00;0.00;;;16.40;99.90;;;;;;5050344;28;20068;-75
2022/08/21 02:01:42;;;;;;;0.00;0.00;;;16.40;99.90;;;;;;5051615;28;20356;-75
2022/08/21 02:04:09;;;;;;;0.00;0.00;;;16.50;99.90;;;;;;5051694;28;20488;-75
2022/08/21 02:06:36;;;;;;;0.17;0.17;;;16.50;99.90;;;;;;5050237;28;20021;-75
2022/08/21 02:09:05;;;;;;;0.35;0.35;;;16.40;99.90;;;;;;5050285;28;20036;-75
2022/08/21 02:11:32;;;;;;;0.15;0.15;;;16.40;99.90;;;;;;5033645;28;20365;-75
2022/08/21 02:13:58;;;;;;;0.05;0.05;;;16.30;99.90;;;;;;5050301;28;20029;-75
2022/08/21 02:16:24;;;;;;;0.00;0.00;;;16.30;99.90;;;;;;5050278;28;20531;-75
2022/08/21 02:18:50;;;;;;;0.00;0.00;;;16.30;99.90;;;;;;5051477;28;20358;-75
2022/08/21 02:21:16;;;;;;;0.13;0.13;;;16.20;99.90;;;;;;5050249;28;20017;-75
2022/08/21 02:23:41;;;;;;;0.00;0.00;;;16.10;99.90;;;;;;5051514;28;20029;-75
2022/08/21 02:26:08;;;;;;;0.73;0.73;;;16.20;99.90;;;;;;5050107;28;20100;-75
2022/08/21 02:28:34;;;;;;;0.00;0.00;;;16.20;99.90;;;;;;5034154;28;20029;-75
2022/08/21 02:31:01;;;;;;;0.10;0.10;;;16.20;99.90;;;;;;5053852;28;20028;-75
2022/08/21 02:33:27;;;;;;;0.00;0.00;;;16.20;99.90;;;;;;5037367;28;20025;-75
2022/08/21 02:35:54;;;;;;;0.00;0.00;;;16.20;99.90;;;;;;5055004;28;20036;-74
2022/08/21 02:38:24;;;;;;;0.00;0.00;;;16.10;99.90;;;;;;5053730;28;20539;-75
2022/08/21 02:40:52;;;;;;;0.00;0.00;;;16.10;99.90;;;;;;5053697;28;20017;-73
2022/08/21 02:43:20;;;;;;;0.10;0.10;;;16.20;99.90;;;;;;5054927;28;20090;-72
2022/08/21 02:45:47;;;;;;;0.00;0.00;;;16.10;99.90;;;;;;5054768;28;20032;-72
2022/08/21 02:48:16;;;;;;;0.00;0.00;;;16.10;99.90;;;;;;5053506;28;20248;-72
2022/08/21 02:50:44;;;;;;;0.00;0.00;;;16.20;99.90;;;;;;5037161;28;20033;-72
2022/08/21 02:53:16;;;;;;;0.00;0.00;;;16.20;99.90;;;;;;5054908;28;20107;-72
2022/08/21 02:55:46;;;;;;;0.00;0.00;;;16.10;99.90;;;;;;5053349;28;20078;-73
2022/08/21 02:58:15;;;;;;;0.20;0.20;;;16.20;99.90;;;;;;5054688;28;20052;-72
2022/08/21 03:00:42;;;;;;;0.00;0.00;;;16.10;99.90;;;;;;5054736;28;20025;-72
2022/08/21 03:03:07;;;;;;;0.00;0.00;;;16.00;99.90;;;;;;5054675;28;20021;-72
2022/08/21 03:05:36;;;;;;;0.25;0.25;;;16.10;99.90;;;;;;5054297;28;20029;-72
2022/08/21 03:08:09;;;;;;;0.20;0.20;;;16.00;99.90;;;;;;5053144;28;20060;-73
2022/08/21 03:10:35;;;;;;;0.00;0.00;;;16.00;99.90;;;;;;5053282;28;20086;-75
2022/08/21 03:13:02;;;;;;;0.40;0.32;;;16.00;99.90;;;;;;5054313;28;20095;-75
2022/08/21 03:15:29;;;;;;;0.10;0.10;;;15.90;99.90;;;;;;5053127;28;20029;-73
2022/08/21 03:17:55;;;;;;;0.10;0.10;;;15.90;99.90;;;;;;5054218;28;20013;-73
2022/08/21 03:20:25;;;;;;;0.00;0.00;;;15.80;99.90;;;;;;5053044;28;20032;-73
2022/08/21 03:22:52;;;;;;;0.00;0.00;;;15.90;99.90;;;;;;5053175;28;20056;-73
2022/08/21 03:25:18;;;;;;;0.00;0.00;;;16.00;99.90;;;;;;5052866;28;20092;-73
2022/08/21 03:27:44;;;;;;;0.00;0.00;;;16.00;99.90;;;;;;5054094;28;20029;-73
2022/08/21 03:30:11;;;;;;;0.00;0.00;;;16.00;99.90;;;;;;5052944;28;20036;-73
2022/08/21 03:32:37;;;;;;;0.00;0.00;;;16.00;99.90;;;;;;5052733;28;20029;-73
2022/08/21 03:35:05;;;;;;;0.08;0.08;;;16.00;99.90;;;;;;5052714;28;20035;-72
2022/08/21 03:37:31;;;;;;;0.10;0.10;;;16.00;99.90;;;;;;5052673;28;20025;-73
2022/08/21 03:39:58;;;;;;;0.00;0.00;;;16.00;99.90;;;;;;5051708;28;20101;-73
2022/08/21 03:42:23;;;;;;;0.43;0.25;;;16.00;99.90;;;;;;5053533;28;20067;-73
2022/08/21 03:44:49;;;;;;;0.10;0.10;;;15.80;99.90;;;;;;5053716;28;20017;-73
2022/08/21 03:47:15;;;;;;;0.00;0.00;;;15.70;99.90;;;;;;5053645;28;20171;-73
2022/08/21 03:49:41;;;;;;;0.00;0.00;;;16.00;99.90;;;;;;5053720;28;20081;-73
2022/08/21 03:52:07;;;;;;;0.00;0.00;;;16.10;99.90;;;;;;5053839;28;20031;-73
2022/08/21 03:54:33;;;;;;;0.38;0.20;;;16.10;99.90;;;;;;5052362;28;20021;-73
2022/08/21 03:56:59;;;;;;;0.00;0.00;;;16.30;99.90;;;;;;5052134;28;20036;-73
2022/08/21 03:59:25;;;;;;;0.00;0.00;;;16.40;99.90;;;;;;5052228;28;20107;-73
2022/08/21 04:01:55;;;;;;;0.00;0.00;;;16.50;99.90;;;;;;5053373;28;20498;-73
2022/08/21 04:04:21;;;;;;;0.20;0.20;;;16.60;99.90;;;;;;5052468;28;20021;-73
2022/08/21 04:06:47;;;;;;;0.10;0.10;;;16.30;99.90;;;;;;5051982;28;20036;-73
2022/08/21 04:09:13;;;;;;;0.00;0.00;;;16.00;99.90;;;;;;5053293;28;20028;-73
2022/08/21 04:11:39;;;;;;;0.00;0.00;;;16.00;99.90;;;;;;5051849;28;20459;-73
2022/08/21 04:14:04;;;;;;;0.00;0.00;;;16.20;99.90;;;;;;5053256;28;20022;-73
2022/08/21 04:16:30;;;;;;;0.30;0.30;;;16.30;99.90;;;;;;5053059;28;20412;-73
2022/08/21 04:18:56;;;;;;;0.43;0.43;;;16.10;99.90;;;;;;5051892;28;20021;-73
2022/08/21 04:21:23;;;;;;;0.17;0.17;;;15.90;99.90;;;;;;5053177;28;20036;-75
2022/08/21 04:23:49;;;;;;;0.03;0.03;;;15.80;99.90;;;;;;5051761;28;20511;-73
2022/08/21 04:26:15;;;;;;;0.05;0.05;;;15.90;99.90;;;;;;5051818;28;20119;-73
2022/08/21 04:28:41;;;;;;;0.00;0.00;;;15.80;99.90;;;;;;5052864;28;20069;-74
2022/08/21 04:31:08;;;;;;;0.00;0.00;;;15.90;99.90;;;;;;5052781;28;20029;-73
2022/08/21 04:33:34;;;;;;;0.00;0.00;;;15.90;99.90;;;;;;5051665;28;20013;-73
2022/08/21 04:36:00;;;;;;;0.03;0.03;;;16.00;99.90;;;;;;5051511;28;20028;-73
2022/08/21 04:38:26;;;;;;;0.00;0.00;;;16.10;99.90;;;;;;5052784;28;20052;-72
2022/08/21 04:40:52;;;;;;;0.22;0.22;;;15.90;99.90;;;;;;5051488;28;20384;-73
2022/08/21 04:43:20;;;;;;;0.30;0.30;;;15.80;99.90;;;;;;5051318;28;20037;-73
2022/08/21 04:45:47;;;;;;;0.20;0.20;;;15.80;99.90;;;;;;5052543;28;20095;-73
2022/08/21 04:48:15;;;;;;;0.08;0.08;;;15.80;99.90;;;;;;5034698;28;20029;-73
2022/08/21 04:50:47;;;;;;;0.00;0.00;;;15.70;99.90;;;;;;5051428;28;20021;-73
2022/08/21 04:53:20;;;;;;;0.32;0.20;;;15.70;99.90;;;;;;5050871;28;20523;-72
2022/08/21 04:55:47;;;;;;;0.10;0.10;;;15.70;99.90;;;;;;5051084;28;20495;-73
2022/08/21 04:58:17;;;;;;;0.00;0.00;;;15.80;99.90;;;;;;5052380;28;20025;-73
2022/08/21 05:00:44;;;;;;;0.00;0.00;;;15.90;99.90;;;;;;5052489;28;20028;-73
2022/08/21 05:03:11;;;;;;;1.13;0.38;;;16.20;99.90;;;;;;5052396;28;20079;-73
2022/08/21 05:05:38;;;;;;;0.00;0.00;;;16.30;99.90;;;;;;5050617;28;20060;-73
2022/08/21 05:08:06;;;;;;;0.00;0.00;;;16.30;99.90;;;;;;5050916;28;20035;-73
2022/08/21 05:10:32;;;;;;;0.10;0.10;;;16.30;99.90;;;;;;5052171;28;20049;-73
2022/08/21 05:12:58;;;;;;;0.00;0.00;;;16.30;99.90;;;;;;5052119;28;20032;-73
2022/08/21 05:15:24;;;;;;;1.52;0.40;;;16.30;99.90;;;;;;5050753;28;20028;-73
2022/08/21 05:17:50;;;;;;;0.00;0.00;;;16.30;99.90;;;;;;5052124;28;20532;-73
2022/08/21 05:20:16;;;;;;;0.10;0.10;;;16.30;99.90;;;;;;5052309;28;20025;-73
2022/08/21 05:22:42;;;;;;;1.40;0.52;;;16.40;99.90;;;;;;5052138;28;20362;-73
2022/08/21 05:25:09;;;;;;;0.25;0.17;;;16.30;99.90;;;;;;5052128;28;20029;-73
2022/08/21 05:27:35;;;;;;;0.00;0.00;;;16.30;99.90;;;;;;5052021;28;20107;-73
2022/08/21 05:30:02;;;;;;;0.35;0.35;;;16.40;99.90;;;;;;5050768;28;20455;-73
2022/08/21 05:32:28;;;;;;;0.00;0.00;;;16.50;99.90;;;;;;5038838;28;20102;-73
2022/08/21 05:34:54;;;;;;;0.10;0.10;;;16.50;99.90;;;;;;5046950;28;20465;-73
2022/08/21 05:37:21;;;;;;;0.52;0.52;;;16.60;99.90;;;;;;5030761;28;20071;-73
2022/08/21 05:39:46;;;;;;;0.00;0.00;;;16.70;99.90;;;;;;5041723;28;20060;-73
2022/08/21 05:42:12;;;;;;;0.00;0.00;;;16.80;99.90;;;;;;5033153;28;20051;-73
2022/08/21 05:44:38;;;;;;;0.70;0.13;;;16.90;99.90;;;;;;5050377;28;20029;-73
2022/08/21 05:47:06;;;;;;;0.00;0.00;;;16.90;99.90;;;;;;5050227;28;20051;-73
2022/08/21 05:49:33;;;;;;;0.00;0.00;;;17.00;99.90;;;;;;5030915;28;20112;-73
2022/08/21 05:51:59;;;;;;;0.17;0.17;;;17.10;99.90;;;;;;5049218;28;20031;-73
2022/08/21 05:54:25;;;;;;;0.15;0.15;;;17.10;99.90;;;;;;5050597;28;20036;-73
2022/08/21 05:56:51;;;;;;;0.70;0.32;;;17.10;99.90;;;;;;5050174;28;20473;-73
2022/08/21 05:59:18;;;;;;;0.00;0.00;;;17.00;99.90;;;;;;5050355;28;20021;-73
2022/08/21 06:01:45;;;;;;;0.00;0.00;;;17.10;99.90;;;;;;5052152;28;20029;-73
2022/08/21 06:04:11;;;;;;;0.10;0.10;;;17.30;99.90;;;;;;5053421;28;20025;-73
2022/08/21 06:06:37;;;;;;;0.00;0.00;;;17.20;99.90;;;;;;5035500;28;20032;-73
2022/08/21 06:09:04;;;;;;;0.10;0.10;;;17.30;99.90;;;;;;5035479;28;20033;-73
2022/08/21 06:11:31;;;;;;;0.00;0.00;;;17.40;99.90;;;;;;5017890;28;20026;-73
2022/08/21 06:13:58;;;;;;;0.15;0.15;;;17.40;99.90;;;;;;5034403;28;20025;-73
2022/08/21 06:16:23;;;;;;;0.20;0.20;;;17.30;99.90;;;;;;5044140;28;20435;-73
2022/08/21 06:18:50;;;;;;;1.25;0.20;;;17.20;99.90;;;;;;5055505;28;20029;-73
2022/08/21 06:21:16;;;;;;;0.00;0.00;;;17.30;99.90;;;;;;5056090;28;20100;-73
2022/08/21 06:23:42;;;;;;;0.00;0.00;;;17.30;99.90;;;;;;5055983;28;20024;-73
2022/08/21 06:26:10;;;;;;;0.10;0.10;;;17.50;99.90;;;;;;5053971;28;20029;-73
2022/08/21 06:28:36;;;;;;;0.00;0.00;;;17.60;99.90;;;;;;5037314;28;20021;-73
2022/08/21 06:31:18;;;;;;;0.00;0.00;;;17.60;99.90;;;;;;5051039;28;20052;-73
2022/08/21 06:33:43;;;;;;;0.52;0.52;;;17.60;99.90;;;;;;5035467;28;20029;-73
2022/08/21 06:36:09;;;;;;;0.00;0.00;;;17.80;99.90;;;;;;5047196;28;20054;-73
2022/08/21 06:38:36;;;;;;;0.08;0.08;;;17.70;99.90;;;;;;5041323;28;20033;-73
2022/08/21 06:41:02;;;;;;;0.55;0.28;;;17.80;99.90;;;;;;5035083;28;20492;-73
2022/08/21 06:43:28;;;;;;;0.00;0.00;;;17.90;99.90;;;;;;5047050;28;20107;-73
2022/08/21 06:45:54;;;;;;;0.13;0.13;;;18.10;99.90;;;;;;5054615;28;20025;-73
2022/08/21 06:48:20;;;;;;;0.03;0.03;;;18.20;99.90;;;;;;5053392;28;20120;-73
2022/08/21 06:50:47;;;;;;;0.22;0.22;;;18.20;99.90;;;;;;5033889;28;20017;-73
2022/08/21 06:53:15;;;;;;;0.50;0.45;;;18.20;99.90;;;;;;5034069;28;20034;-75
2022/08/21 06:55:42;;;;;;;0.50;0.50;;;18.10;99.90;;;;;;5033383;28;20030;-74
2022/08/21 06:58:08;;;;;;;0.20;0.20;;;18.10;99.90;;;;;;5033611;28;20025;-74
2022/08/21 07:00:35;;;;;;;0.10;0.10;;;18.20;99.90;;;;;;5030271;28;20025;-74
2022/08/21 07:03:01;;;;;;;0.10;0.10;;;18.30;99.90;;;;;;5053035;28;20489;-74
2022/08/21 07:05:29;;;;;;;0.10;0.10;;;18.30;99.90;;;;;;5054402;28;20036;-73
2022/08/21 07:07:56;;;;;;;0.10;0.10;;;18.40;99.90;;;;;;5054349;28;20496;-73
2022/08/21 07:10:22;;;;;;;2.58;0.60;;;18.50;99.90;;;;;;5054424;28;20082;-73
2022/08/21 07:12:48;;;;;;;0.80;0.80;;;18.70;99.90;;;;;;5054320;28;20021;-73
2022/08/21 07:15:14;;;;;;;0.05;0.05;;;18.80;99.90;;;;;;5053807;28;20444;-73
2022/08/21 07:17:39;;;;;;;0.00;0.00;;;18.90;99.90;;;;;;5040612;28;20017;-73
2022/08/21 07:20:06;;;;;;;0.00;0.00;;;19.00;99.90;;;;;;5032793;28;20025;-73
2022/08/21 07:22:32;;;;;;;0.10;0.10;;;19.20;99.90;;;;;;5033487;28;20032;-73
2022/08/21 07:24:58;;;;;;;0.20;0.20;;;19.40;99.90;;;;;;5034249;28;20021;-73
2022/08/21 07:27:24;;;;;;;0.70;0.57;;;19.40;99.90;;;;;;5034252;28;20018;-73
2022/08/21 07:29:49;;;;;;;0.00;0.00;;;19.20;99.90;;;;;;5033883;28;20037;-73
2022/08/21 07:32:15;;;;;;;0.28;0.28;;;19.10;99.90;;;;;;5032799;28;20022;-73
2022/08/21 07:34:42;;;;;;;0.00;0.00;;;19.10;99.90;;;;;;5034184;28;20117;-73
2022/08/21 07:37:08;;;;;;;0.00;0.00;;;19.10;99.90;;;;;;5034013;28;20063;-73
2022/08/21 07:39:33;;;;;;;0.10;0.10;;;19.30;99.90;;;;;;5033961;28;20487;-73
2022/08/21 07:41:59;;;;;;;0.13;0.13;;;19.50;99.90;;;;;;5034249;28;20370;-73
2022/08/21 07:44:25;;;;;;;0.20;0.20;;;19.70;99.90;;;;;;5016305;28;20103;-73
2022/08/21 07:46:50;;;;;;;0.50;0.50;;;19.80;99.90;;;;;;5032364;28;20504;-73
2022/08/21 07:49:16;;;;;;;0.05;0.05;;;19.70;99.90;;;;;;5033874;28;20032;-73
2022/08/21 07:51:42;;;;;;;0.28;0.28;;;19.80;99.90;;;;;;5045395;28;20029;-73
2022/08/21 07:54:08;;;;;;;0.00;0.00;;;19.70;99.90;;;;;;5053621;28;20021;-73
2022/08/21 07:56:34;;;;;;;0.03;0.03;;;19.90;99.90;;;;;;5049136;28;20028;-73
2022/08/21 07:59:02;;;;;;;0.10;0.10;;;20.30;99.90;;;;;;5042136;28;20101;-73
2022/08/21 08:01:28;;;;;;;0.00;0.00;;;20.50;99.90;;;;;;5033737;28;20075;-73
2022/08/21 08:03:56;;;;;;;0.15;0.15;;;20.60;99.90;;;;;;5033546;28;20037;-73
2022/08/21 08:06:22;;;;;;;0.00;0.00;;;20.60;99.90;;;;;;5047700;28;20056;-72
2022/08/21 08:08:48;;;;;;;0.55;0.55;;;20.80;99.90;;;;;;5053145;28;20033;-73
2022/08/21 08:11:15;;;;;;;0.00;0.00;;;20.70;99.90;;;;;;5053200;28;20029;-73
2022/08/21 08:13:45;;;;;;;0.10;0.10;;;21.00;99.90;;;;;;5053283;28;20021;-73
2022/08/21 08:16:11;;;;;;;2.75;1.25;;;21.10;99.90;;;;;;5052531;28;20021;-73
2022/08/21 08:18:37;;;;;;;0.00;0.00;;;21.00;99.90;;;;;;5052059;28;20358;-73
2022/08/21 08:21:04;;;;;;;0.05;0.05;;;21.10;99.90;;;;;;5053200;28;20052;-73
2022/08/21 08:23:31;;;;;;;0.30;0.30;;;21.40;99.90;;;;;;5035394;28;20396;-73
2022/08/21 08:25:58;;;;;;;0.10;0.10;;;21.40;99.90;;;;;;5052412;28;20025;-73
2022/08/21 08:28:24;;;;;;;0.05;0.05;;;21.50;99.90;;;;;;5052858;28;20036;-73
2022/08/21 08:30:51;;;;;;;0.40;0.40;;;21.80;99.90;;;;;;5051800;28;20048;-76
2022/08/21 08:33:18;;;;;;;0.47;0.20;;;21.90;99.90;;;;;;5051592;28;20028;-73
2022/08/21 08:35:47;;;;;;;0.00;0.00;;;21.70;99.90;;;;;;5034543;28;20484;-72
2022/08/21 08:38:18;;;;;;;0.30;0.22;;;21.80;99.90;;;;;;5052922;28;20021;-73
2022/08/21 08:40:55;;;;;;;0.00;0.00;;;22.10;99.90;;;;;;5052932;28;20120;-72
2022/08/21 08:43:21;;;;;;;0.00;0.00;;;22.20;99.90;;;;;;5052692;28;20110;-73
2022/08/21 08:45:53;;;;;;;1.75;0.88;;;22.60;99.90;;;;;;5052892;28;20380;-72
2022/08/21 08:48:51;;;;;;;1.65;0.75;;;22.60;99.90;;;;;;5052730;28;20492;-72
2022/08/21 08:51:24;;;;;;;0.80;0.40;;;22.50;99.90;;;;;;5044855;28;20020;-73
2022/08/21 08:53:58;;;;;;;0.45;0.40;;;22.80;99.90;;;;;;5051017;28;20096;-73
2022/08/21 08:56:29;;;;;;;0.68;0.68;;;23.00;99.90;;;;;;5050242;28;20020;-73
2022/08/21 08:59:22;;;;;;;0.00;0.00;;;23.40;99.90;;;;;;5034778;28;20048;-74
2022/08/21 09:01:48;;;;;;;5.15;4.68;;;23.50;99.90;;;;;;5031716;28;20025;-73
2022/08/21 09:04:27;;;;;;;0.25;0.22;;;23.70;98.30;;;;;;5051291;28;20036;-73
2022/08/21 09:07:14;;;;;;;0.28;0.28;;;23.80;97.70;;;;;;5052620;28;20542;-73
2022/08/21 09:10:02;;;;;;;0.00;0.00;;;23.80;96.90;;;;;;5052227;28;20020;-73
2022/08/21 09:12:45;;;;;;;0.00;0.00;;;24.10;96.50;;;;;;5051073;28;20427;-73
2022/08/21 09:15:23;;;;;;;0.00;0.00;;;24.50;94.30;;;;;;5051499;28;20021;-74
2022/08/21 09:18:18;;;;;;;0.00;0.00;;;24.60;94.10;;;;;;5050935;28;20107;-74
2022/08/21 09:20:54;;;;;;;0.43;0.43;;;24.90;94.40;;;;;;5052278;28;20022;-74
2022/08/21 09:23:43;;;;;;;1.15;1.08;;;24.80;90.20;;;;;;5034370;28;20032;-74
2022/08/21 09:26:19;;;;;;;0.00;0.00;;;24.50;88.50;;;;;;5052133;28;20388;-74
2022/08/21 09:28:51;;;;;;;0.28;0.28;;;24.90;86.70;;;;;;5052002;28;20029;-73
2022/08/21 09:31:29;;;;;;;0.75;0.73;;;24.60;85.90;;;;;;5051875;28;20040;-73
2022/08/21 09:33:59;;;;;;;0.05;0.05;;;24.70;84.80;;;;;;5051986;28;20025;-74
2022/08/21 09:36:45;;;;;;;0.00;0.00;;;25.20;84.70;;;;;;5051793;28;20021;-73
2022/08/21 09:39:21;;;;;;;0.10;0.10;;;25.10;82.20;;;;;;5051925;28;20434;-73
2022/08/21 09:42:03;;;;;;;0.00;0.00;;;25.50;81.80;;;;;;5050504;28;20032;-73
2022/08/21 09:44:33;;;;;;;0.00;0.00;;;26.10;79.90;;;;;;5051870;28;20048;-74
2022/08/21 09:46:59;;;;;;;0.15;0.03;;;26.30;77.90;;;;;;5051919;28;20389;-73
2022/08/21 09:49:34;;;;;;;0.08;0.08;;;26.40;77.30;;;;;;5051982;28;20242;-73
2022/08/21 09:52:01;;;;;;;0.10;0.10;;;26.40;72.70;;;;;;5051669;28;20029;-74
2022/08/21 09:54:34;;;;;;;1.33;0.55;;;25.50;70.90;;;;;;5052058;28;20021;-73
2022/08/21 09:59:54;;;;;;;0.00;0.00;;;25.00;71.20;;;;;;5051733;28;20296;-74
2022/08/21 10:02:29;;;;;;;0.10;0.10;;;25.80;68.90;;;;;;5051738;28;20037;-73
2022/08/21 10:05:00;;;;;;;0.00;0.00;;;26.40;66.80;;;;;;5051544;28;20102;-73
2022/08/21 10:07:28;;;;;;;1.55;1.17;;;27.00;66.10;;;;;;5050278;28;20044;-73
2022/08/21 10:10:17;;;;;;;0.08;0.08;;;27.60;66.70;;;;;;5051628;28;20052;-74
2022/08/21 10:13:08;;;;;;;0.00;0.00;;;27.60;65.70;;;;;;5051684;28;20113;-73
2022/08/21 10:15:37;;;;;;;;;;;27.40;66.10;;;;;;5051704;28;20394;-73
2022/08/21 10:18:08;;;;;;;0.30;0.30;;;26.90;63.70;;;;;;5050264;28;19912;-73
2022/08/21 10:20:47;;;;;;;0.00;0.00;;;27.20;65.20;;;;;;5050109;28;20041;-74
2022/08/21 10:23:35;;;;;;;0.00;0.00;;;28.00;62.90;;;;;;5050196;28;20037;-74
2022/08/21 10:26:22;;;;;;;1.42;0.57;;;28.50;59.90;;;;;;5049955;28;20035;-73
2022/08/21 10:29:02;;;;;;;0.20;0.20;;;27.90;61.30;;;;;;5051501;28;20025;-74
2022/08/21 10:31:51;;;;;;;0.98;0.52;;;28.00;60.40;;;;;;5051262;28;20025;-73
2022/08/21 10:34:31;;;;;;;0.98;0.70;;;27.30;60.70;;;;;;5051387;28;20055;-74
2022/08/21 10:37:12;;;;;;;0.13;0.13;;;25.80;65.00;;;;;;5051151;28;20033;-74
2022/08/21 10:39:46;;;;;;;0.22;0.22;;;25.20;66.70;;;;;;5051276;28;20526;-73
2022/08/21 10:42:37;;;;;;;0.10;0.10;;;26.60;66.80;;;;;;5062850;22;20045;-73
2022/08/21 10:45:22;;;;;;;0.10;0.10;;;27.90;61.90;;;;;;5013316;28;20120;-74
2022/08/21 10:47:56;;;;;;;0.00;0.00;;;28.50;59.70;;;;;;5013875;28;20028;-73
2022/08/21 10:50:53;;;;;;;0.10;0.10;;;28.50;58.00;;;;;;5033358;28;20091;-74
2022/08/21 10:53:46;;;;;;;0.00;0.00;;;28.80;57.90;;;;;;5035035;28;20132;-74
2022/08/21 10:56:26;;;;;;;0.00;0.00;;;28.90;57.20;;;;;;5017221;28;20017;-73
2022/08/21 10:59:19;;;;;;;0.00;0.00;;;29.10;54.90;;;;;;5034917;28;20474;-74
2022/08/21 11:02:23;;;;;;;2.10;0.47;;;29.60;53.60;;;;;;5000828;28;20052;-74
2022/08/21 11:05:11;;;;;;;0.00;0.00;;;30.00;52.70;;;;;;4984563;28;20061;-73
2022/08/21 11:07:49;;;;;;;0.15;0.10;;;29.00;52.80;;;;;;5035170;28;20041;-75
2022/08/21 11:10:23;;;;;;;0.00;0.00;;;28.40;53.70;;;;;;5035020;28;20080;-75
2022/08/21 11:12:58;;;;;;;0.00;0.00;;;27.50;55.80;;;;;;5034741;28;20093;-74
2022/08/21 11:15:39;;;;;;;0.00;0.00;;;27.00;56.40;;;;;;5016899;28;20021;-74
2022/08/21 11:18:14;;;;;;;0.00;0.00;;;26.80;56.60;;;;;;5034886;28;20021;-74
2022/08/21 11:20:48;;;;;;;0.00;0.00;;;26.50;57.30;;;;;;5034756;28;20021;-74
2022/08/21 11:23:24;;;;;;;1.08;1.08;;;26.10;59.30;;;;;;5034568;28;20488;-74
2022/08/21 11:26:00;;;;;;;0.00;0.00;;;25.80;62.20;;;;;;5034479;28;20025;-74
2022/08/21 11:28:48;;;;;;;0.22;0.22;;;25.40;64.80;;;;;;5034781;28;20381;-74
2022/08/21 11:32:01;;;;;;;0.10;0.10;;;26.50;63.50;;;;;;5034475;28;20477;-74
2022/08/21 11:34:40;;;;;;;0.55;0.17;;;27.20;59.20;;;;;;5011103;28;20045;-74
2022/08/21 11:37:40;;;;;;;0.00;0.00;;;28.30;57.00;;;;;;5016556;28;20026;-75
2022/08/21 11:40:29;;;;;;;0.35;0.35;;;29.10;54.50;;;;;;5034095;28;20125;-74
2022/08/21 11:43:21;;;;;;;0.00;0.00;;;29.50;52.70;;;;;;5000036;28;20113;-75
2022/08/21 11:45:54;;;;;;;0.00;0.00;;;30.00;51.60;;;;;;5010595;28;20128;-75
2022/08/21 11:49:02;;;;;;;0.00;0.00;;;29.80;51.80;;;;;;4999785;28;20025;-73
2022/08/21 11:51:38;;;;;;;0.00;0.00;;;29.60;51.60;;;;;;5033781;28;20049;-75
2022/08/21 11:54:22;;;;;;;1.27;0.80;;;29.60;51.30;;;;;;5016133;28;20148;-75
2022/08/21 11:56:55;;;;;;;0.00;0.00;;;29.30;50.00;;;;;;5033672;28;20104;-74
2022/08/21 11:59:30;;;;;;;0.00;0.00;;;28.60;53.10;;;;;;5016079;28;20100;-74
2022/08/21 12:01:56;;;;;;;0.00;0.00;;;28.30;52.20;;;;;;5014913;28;20040;-75
2022/08/21 12:04:34;;;;;;;0.17;0.17;;;27.90;54.00;;;;;;5015996;28;20025;-75
2022/08/21 12:07:16;;;;;;;0.00;0.00;;;27.20;55.80;;;;;;4999406;28;20075;-74
2022/08/21 12:09:54;;;;;;;0.15;0.10;;;26.80;57.70;;;;;;5015804;28;20026;-74
2022/08/21 12:12:30;;;;;;;1.55;1.35;;;26.30;57.40;;;;;;5033712;28;20022;-74
2022/08/21 12:15:21;;;;;;;0.00;0.00;;;26.10;58.90;;;;;;5033595;28;20025;-74
2022/08/21 12:18:20;;;;;;;0.20;0.20;;;26.00;58.70;;;;;;5015849;28;20021;-74
2022/08/21 12:21:03;;;;;;;0.00;0.00;;;25.80;58.90;;;;;;5033511;28;20057;-74
2022/08/21 12:24:15;;;;;;;0.17;0.17;;;25.80;59.10;;;;;;4999316;28;20029;-74
2022/08/21 12:27:13;;;;;;;0.00;0.00;;;26.00;57.90;;;;;;5015665;28;20030;-74
2022/08/21 12:29:45;;;;;;;0.22;0.22;;;26.50;60.60;;;;;;5032983;28;20396;-74
2022/08/21 12:32:10;;;;;;;0.10;0.10;;;26.60;61.10;;;;;;5015458;28;20441;-73
2022/08/21 12:34:47;;;;;;;0.00;0.00;;;26.60;60.20;;;;;;5015537;28;20080;-74
2022/08/21 12:37:34;;;;;;;0.00;0.00;;;26.50;61.20;;;;;;5015492;28;20049;-74
2022/08/21 12:40:02;;;;;;;0.00;0.00;;;26.90;59.70;;;;;;4999029;28;20036;-74
2022/08/21 12:42:42;;;;;;;1.27;0.28;;;27.00;59.00;;;;;;5015298;28;20059;-75
2022/08/21 12:45:17;;;;;;;0.25;0.20;;;27.20;57.20;;;;;;5032885;28;20021;-74
2022/08/21 12:47:54;;;;;;;0.30;0.30;;;27.30;56.50;;;;;;4999095;28;20047;-74
2022/08/21 12:50:36;;;;;;;0.00;0.00;;;27.20;56.10;;;;;;5033089;28;20061;-75
2022/08/21 12:53:14;;;;;;;0.00;0.00;;;26.60;56.60;;;;;;5032885;28;20029;-74
2022/08/21 12:55:43;;;;;;;0.00;0.00;;;26.50;57.90;;;;;;5032973;28;20022;-74
2022/08/21 12:58:18;;;;;;;0.20;0.20;;;26.30;58.40;;;;;;5014945;28;20029;-75
2022/08/21 13:00:51;;;;;;;0.00;0.00;;;26.40;58.80;;;;;;5015101;28;20045;-74
2022/08/21 13:03:17;;;;;;;0.32;0.15;;;26.50;58.70;;;;;;5032840;28;20025;-75
2022/08/21 13:05:44;;;;;;;0.00;0.00;;;26.70;59.30;;;;;;5014813;28;20030;-75
2022/08/21 13:08:12;;;;;;;0.60;0.38;;;26.90;60.10;;;;;;5032597;28;20032;-74
2022/08/21 13:10:40;;;;;;;0.00;0.00;;;26.80;61.60;;;;;;4998626;28;20025;-75